sensor_id;sensor_type;location;lat;lon;timestamp;P1;durP1;ratioP1;P2;durP2;ratioP2
63286;SDS011;49410;55.708;37.522;2022-09-23T00:01:26;15.30;;;7.50;;
63286;SDS011;49410;55.708;37.522;2022-09-23T00:03:52;13.95;;;7.38;;
63286;SDS011;49410;55.708;37.522;2022-09-23T00:06:21;14.65;;;6.75;;
63286;SDS011;49410;55.708;37.522;2022-09-23T00:08:48;17.80;;;7.72;;
63286;SDS011;49410;55.708;37.522;2022-09-23T00:11:15;16.92;;;6.95;;
63286;SDS011;49410;55.708;37.522;2022-09-23T00:13:44;15.07;;;7.35;;
63286;SDS011;49410;55.708;37.522;2022-09-23T00:16:12;17.05;;;6.72;;
63286;SDS011;49410;55.708;37.522;2022-09-23T00:18:39;17.33;;;7.05;;
63286;SDS011;49410;55.708;37.522;2022-09-23T00:21:07;13.52;;;6.78;;
63286;SDS011;49410;55.708;37.522;2022-09-23T00:23:37;13.90;;;6.85;;
63286;SDS011;49410;55.708;37.522;2022-09-23T00:26:05;15.32;;;7.22;;
63286;SDS011;49410;55.708;37.522;2022-09-23T00:28:32;15.80;;;6.22;;
63286;SDS011;49410;55.708;37.522;2022-09-23T00:31:02;15.13;;;6.38;;
63286;SDS011;49410;55.708;37.522;2022-09-23T00:33:28;12.73;;;5.72;;
63286;SDS011;49410;55.708;37.522;2022-09-23T00:36:00;11.10;;;5.38;;
63286;SDS011;49410;55.708;37.522;2022-09-23T00:38:28;11.55;;;5.57;;
63286;SDS011;49410;55.708;37.522;2022-09-23T00:40:54;11.60;;;5.65;;
63286;SDS011;49410;55.708;37.522;2022-09-23T00:43:19;14.15;;;6.00;;
63286;SDS011;49410;55.708;37.522;2022-09-23T00:46:01;12.13;;;5.57;;
63286;SDS011;49410;55.708;37.522;2022-09-23T00:48:26;11.73;;;5.82;;
63286;SDS011;49410;55.708;37.522;2022-09-23T00:50:52;14.20;;;5.40;;
63286;SDS011;49410;55.708;37.522;2022-09-23T00:53:19;11.70;;;5.78;;
63286;SDS011;49410;55.708;37.522;2022-09-23T00:55:55;13.93;;;5.78;;
63286;SDS011;49410;55.708;37.522;2022-09-23T00:58:27;10.65;;;5.57;;
63286;SDS011;49410;55.708;37.522;2022-09-23T01:00:57;12.60;;;5.75;;
63286;SDS011;49410;55.708;37.522;2022-09-23T01:03:24;11.98;;;5.63;;
63286;SDS011;49410;55.708;37.522;2022-09-23T01:05:50;11.43;;;5.28;;
63286;SDS011;49410;55.708;37.522;2022-09-23T01:08:17;13.70;;;5.82;;
63286;SDS011;49410;55.708;37.522;2022-09-23T01:11:01;14.32;;;6.50;;
63286;SDS011;49410;55.708;37.522;2022-09-23T01:13:42;12.52;;;6.30;;
63286;SDS011;49410;55.708;37.522;2022-09-23T01:22:08;12.82;;;6.40;;
63286;SDS011;49410;55.708;37.522;2022-09-23T01:24:45;13.90;;;6.00;;
63286;SDS011;49410;55.708;37.522;2022-09-23T01:30:13;12.98;;;6.18;;
63286;SDS011;49410;55.708;37.522;2022-09-23T01:33:05;12.52;;;5.90;;
63286;SDS011;49410;55.708;37.522;2022-09-23T01:36:07;12.57;;;5.80;;
63286;SDS011;49410;55.708;37.522;2022-09-23T01:44:03;12.45;;;6.20;;
63286;SDS011;49410;55.708;37.522;2022-09-23T01:46:39;13.73;;;6.28;;
63286;SDS011;49410;55.708;37.522;2022-09-23T01:49:17;12.32;;;6.05;;
63286;SDS011;49410;55.708;37.522;2022-09-23T01:51:57;12.77;;;5.93;;
63286;SDS011;49410;55.708;37.522;2022-09-23T01:54:36;12.65;;;6.00;;
63286;SDS011;49410;55.708;37.522;2022-09-23T01:57:17;12.35;;;5.78;;
63286;SDS011;49410;55.708;37.522;2022-09-23T01:59:55;13.25;;;6.15;;
63286;SDS011;49410;55.708;37.522;2022-09-23T02:02:30;12.73;;;6.47;;
63286;SDS011;49410;55.708;37.522;2022-09-23T02:05:01;14.35;;;5.95;;
63286;SDS011;49410;55.708;37.522;2022-09-23T02:07:42;15.30;;;6.28;;
63286;SDS011;49410;55.708;37.522;2022-09-23T02:10:18;11.95;;;5.95;;
63286;SDS011;49410;55.708;37.522;2022-09-23T02:12:50;11.48;;;5.55;;
63286;SDS011;49410;55.708;37.522;2022-09-23T02:15:24;14.40;;;5.97;;
63286;SDS011;49410;55.708;37.522;2022-09-23T02:18:04;12.48;;;5.53;;
63286;SDS011;49410;55.708;37.522;2022-09-23T02:20:37;12.48;;;6.28;;
63286;SDS011;49410;55.708;37.522;2022-09-23T02:23:16;12.23;;;5.88;;
63286;SDS011;49410;55.708;37.522;2022-09-23T02:25:49;11.77;;;5.65;;
63286;SDS011;49410;55.708;37.522;2022-09-23T02:28:35;12.77;;;6.18;;
63286;SDS011;49410;55.708;37.522;2022-09-23T02:31:20;11.77;;;5.35;;
63286;SDS011;49410;55.708;37.522;2022-09-23T02:36:47;12.57;;;5.50;;
63286;SDS011;49410;55.708;37.522;2022-09-23T02:39:14;12.88;;;5.60;;
63286;SDS011;49410;55.708;37.522;2022-09-23T02:41:50;11.23;;;5.30;;
63286;SDS011;49410;55.708;37.522;2022-09-23T02:44:19;12.43;;;5.63;;
63286;SDS011;49410;55.708;37.522;2022-09-23T02:46:46;11.93;;;5.05;;
63286;SDS011;49410;55.708;37.522;2022-09-23T02:49:18;14.38;;;5.50;;
63286;SDS011;49410;55.708;37.522;2022-09-23T02:51:47;11.27;;;4.93;;
63286;SDS011;49410;55.708;37.522;2022-09-23T02:54:15;11.73;;;5.30;;
63286;SDS011;49410;55.708;37.522;2022-09-23T02:56:42;12.32;;;5.38;;
63286;SDS011;49410;55.708;37.522;2022-09-23T02:59:08;11.35;;;4.65;;
63286;SDS011;49410;55.708;37.522;2022-09-23T03:01:38;13.38;;;5.45;;
63286;SDS011;49410;55.708;37.522;2022-09-23T03:09:35;11.70;;;5.50;;
63286;SDS011;49410;55.708;37.522;2022-09-23T03:14:42;10.10;;;4.68;;
63286;SDS011;49410;55.708;37.522;2022-09-23T03:17:24;11.73;;;4.97;;
63286;SDS011;49410;55.708;37.522;2022-09-23T03:20:19;11.32;;;5.03;;
63286;SDS011;49410;55.708;37.522;2022-09-23T03:22:57;11.48;;;4.35;;
63286;SDS011;49410;55.708;37.522;2022-09-23T03:25:27;11.35;;;4.60;;
63286;SDS011;49410;55.708;37.522;2022-09-23T03:27:56;11.65;;;5.35;;
63286;SDS011;49410;55.708;37.522;2022-09-23T03:30:24;11.52;;;4.85;;
63286;SDS011;49410;55.708;37.522;2022-09-23T03:32:50;8.70;;;4.15;;
63286;SDS011;49410;55.708;37.522;2022-09-23T03:35:17;9.90;;;4.50;;
63286;SDS011;49410;55.708;37.522;2022-09-23T03:38:05;10.48;;;4.25;;
63286;SDS011;49410;55.708;37.522;2022-09-23T03:40:34;10.10;;;4.75;;
63286;SDS011;49410;55.708;37.522;2022-09-23T03:43:05;9.38;;;4.30;;
63286;SDS011;49410;55.708;37.522;2022-09-23T03:45:31;10.32;;;4.43;;
63286;SDS011;49410;55.708;37.522;2022-09-23T03:47:58;12.60;;;4.82;;
63286;SDS011;49410;55.708;37.522;2022-09-23T03:50:24;10.48;;;4.55;;
63286;SDS011;49410;55.708;37.522;2022-09-23T03:52:49;11.07;;;4.57;;
63286;SDS011;49410;55.708;37.522;2022-09-23T03:55:15;11.80;;;5.15;;
63286;SDS011;49410;55.708;37.522;2022-09-23T03:57:43;11.88;;;4.70;;
63286;SDS011;49410;55.708;37.522;2022-09-23T04:00:10;9.85;;;4.53;;
63286;SDS011;49410;55.708;37.522;2022-09-23T04:02:37;12.18;;;4.75;;
63286;SDS011;49410;55.708;37.522;2022-09-23T04:05:02;14.52;;;5.65;;
63286;SDS011;49410;55.708;37.522;2022-09-23T04:07:29;17.40;;;5.22;;
63286;SDS011;49410;55.708;37.522;2022-09-23T04:09:54;13.27;;;4.97;;
63286;SDS011;49410;55.708;37.522;2022-09-23T04:12:20;10.45;;;5.13;;
63286;SDS011;49410;55.708;37.522;2022-09-23T04:14:45;10.90;;;5.00;;
63286;SDS011;49410;55.708;37.522;2022-09-23T04:17:11;11.88;;;5.55;;
63286;SDS011;49410;55.708;37.522;2022-09-23T04:19:37;12.57;;;5.78;;
63286;SDS011;49410;55.708;37.522;2022-09-23T04:22:03;11.23;;;4.93;;
63286;SDS011;49410;55.708;37.522;2022-09-23T04:24:28;11.60;;;5.13;;
63286;SDS011;49410;55.708;37.522;2022-09-23T04:26:54;11.20;;;5.28;;
63286;SDS011;49410;55.708;37.522;2022-09-23T04:29:21;10.25;;;5.07;;
63286;SDS011;49410;55.708;37.522;2022-09-23T04:31:47;11.50;;;4.80;;
63286;SDS011;49410;55.708;37.522;2022-09-23T04:34:13;12.57;;;4.78;;
63286;SDS011;49410;55.708;37.522;2022-09-23T04:36:40;12.10;;;4.45;;
63286;SDS011;49410;55.708;37.522;2022-09-23T04:39:06;10.13;;;4.65;;
63286;SDS011;49410;55.708;37.522;2022-09-23T04:41:32;10.52;;;4.97;;
63286;SDS011;49410;55.708;37.522;2022-09-23T04:43:57;9.50;;;4.25;;
63286;SDS011;49410;55.708;37.522;2022-09-23T04:46:23;13.40;;;5.45;;
63286;SDS011;49410;55.708;37.522;2022-09-23T04:48:49;12.55;;;5.78;;
63286;SDS011;49410;55.708;37.522;2022-09-23T04:51:15;12.15;;;5.40;;
63286;SDS011;49410;55.708;37.522;2022-09-23T04:53:43;11.15;;;4.72;;
63286;SDS011;49410;55.708;37.522;2022-09-23T04:56:17;9.05;;;4.22;;
63286;SDS011;49410;55.708;37.522;2022-09-23T04:58:43;9.95;;;3.92;;
63286;SDS011;49410;55.708;37.522;2022-09-23T05:03:43;10.07;;;4.00;;
63286;SDS011;49410;55.708;37.522;2022-09-23T05:06:11;9.05;;;3.65;;
63286;SDS011;49410;55.708;37.522;2022-09-23T05:08:38;8.27;;;3.60;;
63286;SDS011;49410;55.708;37.522;2022-09-23T05:11:11;10.18;;;4.40;;
63286;SDS011;49410;55.708;37.522;2022-09-23T05:13:37;8.52;;;3.30;;
63286;SDS011;49410;55.708;37.522;2022-09-23T05:16:03;8.00;;;3.35;;
63286;SDS011;49410;55.708;37.522;2022-09-23T05:18:32;10.23;;;3.95;;
63286;SDS011;49410;55.708;37.522;2022-09-23T05:20:59;8.05;;;3.63;;
63286;SDS011;49410;55.708;37.522;2022-09-23T05:23:25;8.15;;;3.33;;
63286;SDS011;49410;55.708;37.522;2022-09-23T05:25:58;6.95;;;3.20;;
63286;SDS011;49410;55.708;37.522;2022-09-23T05:28:25;8.68;;;3.63;;
63286;SDS011;49410;55.708;37.522;2022-09-23T05:30:50;6.65;;;2.88;;
63286;SDS011;49410;55.708;37.522;2022-09-23T05:33:16;7.60;;;3.10;;
63286;SDS011;49410;55.708;37.522;2022-09-23T05:35:47;7.22;;;3.00;;
63286;SDS011;49410;55.708;37.522;2022-09-23T05:38:13;7.43;;;3.38;;
63286;SDS011;49410;55.708;37.522;2022-09-23T05:40:40;7.97;;;2.88;;
63286;SDS011;49410;55.708;37.522;2022-09-23T05:43:06;7.00;;;2.70;;
63286;SDS011;49410;55.708;37.522;2022-09-23T05:45:31;8.05;;;2.67;;
63286;SDS011;49410;55.708;37.522;2022-09-23T05:47:56;7.55;;;3.15;;
63286;SDS011;49410;55.708;37.522;2022-09-23T05:50:22;8.68;;;3.17;;
63286;SDS011;49410;55.708;37.522;2022-09-23T05:52:47;6.60;;;2.83;;
63286;SDS011;49410;55.708;37.522;2022-09-23T05:55:13;8.30;;;2.97;;
63286;SDS011;49410;55.708;37.522;2022-09-23T05:57:38;8.85;;;2.85;;
63286;SDS011;49410;55.708;37.522;2022-09-23T06:00:04;9.30;;;3.20;;
63286;SDS011;49410;55.708;37.522;2022-09-23T06:02:29;8.70;;;3.25;;
63286;SDS011;49410;55.708;37.522;2022-09-23T06:04:55;9.35;;;3.00;;
63286;SDS011;49410;55.708;37.522;2022-09-23T06:07:20;10.10;;;3.00;;
63286;SDS011;49410;55.708;37.522;2022-09-23T06:09:45;7.35;;;2.75;;
63286;SDS011;49410;55.708;37.522;2022-09-23T06:12:11;9.32;;;3.30;;
63286;SDS011;49410;55.708;37.522;2022-09-23T06:14:38;8.02;;;3.22;;
63286;SDS011;49410;55.708;37.522;2022-09-23T06:17:03;7.78;;;3.00;;
63286;SDS011;49410;55.708;37.522;2022-09-23T06:19:29;11.48;;;3.63;;
63286;SDS011;49410;55.708;37.522;2022-09-23T06:21:55;8.00;;;3.28;;
63286;SDS011;49410;55.708;37.522;2022-09-23T06:24:20;9.23;;;3.67;;
63286;SDS011;49410;55.708;37.522;2022-09-23T06:26:46;6.72;;;2.80;;
63286;SDS011;49410;55.708;37.522;2022-09-23T06:29:11;7.85;;;3.17;;
63286;SDS011;49410;55.708;37.522;2022-09-23T06:31:37;8.45;;;2.97;;
63286;SDS011;49410;55.708;37.522;2022-09-23T06:34:04;7.03;;;2.97;;
63286;SDS011;49410;55.708;37.522;2022-09-23T06:36:29;6.70;;;2.67;;
63286;SDS011;49410;55.708;37.522;2022-09-23T06:38:55;5.65;;;2.70;;
63286;SDS011;49410;55.708;37.522;2022-09-23T06:41:20;7.32;;;3.00;;
63286;SDS011;49410;55.708;37.522;2022-09-23T06:43:46;6.45;;;2.75;;
63286;SDS011;49410;55.708;37.522;2022-09-23T06:46:12;7.35;;;2.80;;
63286;SDS011;49410;55.708;37.522;2022-09-23T06:48:39;7.00;;;2.95;;
63286;SDS011;49410;55.708;37.522;2022-09-23T06:51:05;6.60;;;2.53;;
63286;SDS011;49410;55.708;37.522;2022-09-23T06:53:31;7.78;;;2.97;;
63286;SDS011;49410;55.708;37.522;2022-09-23T06:55:57;10.75;;;3.85;;
63286;SDS011;49410;55.708;37.522;2022-09-23T06:58:23;7.38;;;3.15;;
63286;SDS011;49410;55.708;37.522;2022-09-23T07:00:50;7.20;;;2.70;;
63286;SDS011;49410;55.708;37.522;2022-09-23T07:03:15;9.32;;;3.58;;
63286;SDS011;49410;55.708;37.522;2022-09-23T07:05:40;9.27;;;3.28;;
63286;SDS011;49410;55.708;37.522;2022-09-23T07:08:06;9.02;;;2.97;;
63286;SDS011;49410;55.708;37.522;2022-09-23T07:10:33;8.38;;;3.38;;
63286;SDS011;49410;55.708;37.522;2022-09-23T07:13:02;9.35;;;3.70;;
63286;SDS011;49410;55.708;37.522;2022-09-23T07:15:28;8.35;;;3.25;;
63286;SDS011;49410;55.708;37.522;2022-09-23T07:17:54;11.02;;;4.15;;
63286;SDS011;49410;55.708;37.522;2022-09-23T07:20:19;7.60;;;3.50;;
63286;SDS011;49410;55.708;37.522;2022-09-23T07:22:51;8.07;;;3.60;;
63286;SDS011;49410;55.708;37.522;2022-09-23T07:25:17;7.50;;;3.72;;
63286;SDS011;49410;55.708;37.522;2022-09-23T07:27:43;10.20;;;3.85;;
63286;SDS011;49410;55.708;37.522;2022-09-23T07:30:12;8.93;;;3.80;;
63286;SDS011;49410;55.708;37.522;2022-09-23T07:32:38;6.85;;;3.55;;
63286;SDS011;49410;55.708;37.522;2022-09-23T07:35:04;9.43;;;4.03;;
63286;SDS011;49410;55.708;37.522;2022-09-23T07:37:30;7.88;;;3.88;;
63286;SDS011;49410;55.708;37.522;2022-09-23T07:39:56;11.40;;;4.13;;
63286;SDS011;49410;55.708;37.522;2022-09-23T07:42:21;10.95;;;4.18;;
63286;SDS011;49410;55.708;37.522;2022-09-23T07:44:47;7.90;;;3.50;;
63286;SDS011;49410;55.708;37.522;2022-09-23T07:47:13;9.13;;;3.80;;
63286;SDS011;49410;55.708;37.522;2022-09-23T07:49:39;10.57;;;3.97;;
63286;SDS011;49410;55.708;37.522;2022-09-23T07:52:05;9.82;;;4.30;;
63286;SDS011;49410;55.708;37.522;2022-09-23T07:54:31;10.68;;;4.50;;
63286;SDS011;49410;55.708;37.522;2022-09-23T07:56:57;8.60;;;3.97;;
63286;SDS011;49410;55.708;37.522;2022-09-23T07:59:22;10.30;;;4.43;;
63286;SDS011;49410;55.708;37.522;2022-09-23T08:01:49;10.85;;;4.47;;
63286;SDS011;49410;55.708;37.522;2022-09-23T08:06:51;10.38;;;3.90;;
63286;SDS011;49410;55.708;37.522;2022-09-23T08:09:18;10.65;;;4.90;;
63286;SDS011;49410;55.708;37.522;2022-09-23T08:11:44;10.85;;;4.15;;
63286;SDS011;49410;55.708;37.522;2022-09-23T08:14:11;10.75;;;4.22;;
63286;SDS011;49410;55.708;37.522;2022-09-23T08:16:37;9.18;;;4.10;;
63286;SDS011;49410;55.708;37.522;2022-09-23T08:19:04;11.70;;;4.30;;
63286;SDS011;49410;55.708;37.522;2022-09-23T08:21:29;9.65;;;4.07;;
63286;SDS011;49410;55.708;37.522;2022-09-23T08:23:54;7.93;;;3.80;;
63286;SDS011;49410;55.708;37.522;2022-09-23T08:26:20;10.00;;;4.30;;
63286;SDS011;49410;55.708;37.522;2022-09-23T08:28:45;9.07;;;4.10;;
63286;SDS011;49410;55.708;37.522;2022-09-23T08:31:12;11.65;;;4.15;;
63286;SDS011;49410;55.708;37.522;2022-09-23T08:33:40;8.48;;;3.78;;
63286;SDS011;49410;55.708;37.522;2022-09-23T08:36:06;10.55;;;4.18;;
63286;SDS011;49410;55.708;37.522;2022-09-23T08:38:31;9.02;;;4.07;;
63286;SDS011;49410;55.708;37.522;2022-09-23T08:41:15;9.05;;;4.45;;
63286;SDS011;49410;55.708;37.522;2022-09-23T08:43:45;9.27;;;3.97;;
63286;SDS011;49410;55.708;37.522;2022-09-23T08:46:11;9.52;;;4.47;;
63286;SDS011;49410;55.708;37.522;2022-09-23T08:48:41;9.18;;;4.00;;
63286;SDS011;49410;55.708;37.522;2022-09-23T08:51:12;7.53;;;3.53;;
63286;SDS011;49410;55.708;37.522;2022-09-23T08:53:38;8.15;;;3.65;;
63286;SDS011;49410;55.708;37.522;2022-09-23T08:56:14;7.45;;;3.72;;
63286;SDS011;49410;55.708;37.522;2022-09-23T09:04:12;9.10;;;3.90;;
63286;SDS011;49410;55.708;37.522;2022-09-23T09:11:55;8.65;;;3.78;;
63286;SDS011;49410;55.708;37.522;2022-09-23T09:17:58;10.80;;;4.13;;
63286;SDS011;49410;55.708;37.522;2022-09-23T09:25:40;7.55;;;3.45;;
63286;SDS011;49410;55.708;37.522;2022-09-23T09:30:41;8.05;;;3.55;;
63286;SDS011;49410;55.708;37.522;2022-09-23T09:36:00;10.25;;;3.33;;
63286;SDS011;49410;55.708;37.522;2022-09-23T09:38:27;7.07;;;3.40;;
63286;SDS011;49410;55.708;37.522;2022-09-23T09:40:53;6.43;;;2.92;;
63286;SDS011;49410;55.708;37.522;2022-09-23T09:43:19;10.20;;;3.78;;
63286;SDS011;49410;55.708;37.522;2022-09-23T09:45:58;8.95;;;3.88;;
63286;SDS011;49410;55.708;37.522;2022-09-23T09:50:52;7.70;;;3.53;;
63286;SDS011;49410;55.708;37.522;2022-09-23T09:53:26;8.40;;;3.58;;
63286;SDS011;49410;55.708;37.522;2022-09-23T09:55:56;9.13;;;3.88;;
63286;SDS011;49410;55.708;37.522;2022-09-23T09:58:22;7.65;;;3.72;;
63286;SDS011;49410;55.708;37.522;2022-09-23T10:00:49;7.97;;;3.13;;
63286;SDS011;49410;55.708;37.522;2022-09-23T10:03:20;9.63;;;3.10;;
63286;SDS011;49410;55.708;37.522;2022-09-23T10:05:48;7.72;;;3.10;;
63286;SDS011;49410;55.708;37.522;2022-09-23T10:08:30;7.40;;;3.28;;
63286;SDS011;49410;55.708;37.522;2022-09-23T10:13:22;7.00;;;2.80;;
63286;SDS011;49410;55.708;37.522;2022-09-23T10:15:48;8.25;;;3.17;;
63286;SDS011;49410;55.708;37.522;2022-09-23T10:18:19;9.23;;;3.35;;
63286;SDS011;49410;55.708;37.522;2022-09-23T10:20:44;8.38;;;3.63;;
63286;SDS011;49410;55.708;37.522;2022-09-23T10:23:15;7.13;;;2.97;;
63286;SDS011;49410;55.708;37.522;2022-09-23T10:25:42;7.07;;;2.83;;
63286;SDS011;49410;55.708;37.522;2022-09-23T10:31:07;7.03;;;2.88;;
63286;SDS011;49410;55.708;37.522;2022-09-23T10:33:33;9.77;;;3.20;;
63286;SDS011;49410;55.708;37.522;2022-09-23T10:36:03;6.80;;;2.83;;
63286;SDS011;49410;55.708;37.522;2022-09-23T10:38:32;7.95;;;2.90;;
63286;SDS011;49410;55.708;37.522;2022-09-23T10:40:57;6.78;;;3.05;;
63286;SDS011;49410;55.708;37.522;2022-09-23T10:46:40;6.93;;;3.20;;
63286;SDS011;49410;55.708;37.522;2022-09-23T10:52:15;10.38;;;3.72;;
63286;SDS011;49410;55.708;37.522;2022-09-23T11:08:45;9.75;;;4.00;;
63286;SDS011;49410;55.708;37.522;2022-09-23T11:11:36;9.40;;;3.78;;
63286;SDS011;49410;55.708;37.522;2022-09-23T11:31:43;7.57;;;3.30;;
63286;SDS011;49410;55.708;37.522;2022-09-23T11:34:33;8.60;;;3.28;;
63286;SDS011;49410;55.708;37.522;2022-09-23T11:37:56;7.22;;;3.30;;
63286;SDS011;49410;55.708;37.522;2022-09-23T11:40:21;9.75;;;3.38;;
63286;SDS011;49410;55.708;37.522;2022-09-23T11:42:55;10.02;;;3.75;;
63286;SDS011;49410;55.708;37.522;2022-09-23T11:45:27;8.77;;;3.33;;
63286;SDS011;49410;55.708;37.522;2022-09-23T11:47:59;7.78;;;3.38;;
63286;SDS011;49410;55.708;37.522;2022-09-23T11:53:06;7.63;;;3.25;;
63286;SDS011;49410;55.708;37.522;2022-09-23T11:55:45;7.00;;;2.80;;
63286;SDS011;49410;55.708;37.522;2022-09-23T11:58:24;7.72;;;3.00;;
63286;SDS011;49410;55.708;37.522;2022-09-23T12:00:56;7.07;;;2.92;;
63286;SDS011;49410;55.708;37.522;2022-09-23T12:05:59;6.82;;;3.00;;
63286;SDS011;49410;55.708;37.522;2022-09-23T12:08:34;7.72;;;3.10;;
63286;SDS011;49410;55.708;37.522;2022-09-23T12:27:08;9.35;;;2.83;;
63286;SDS011;49410;55.708;37.522;2022-09-23T12:29:47;6.85;;;2.70;;
63286;SDS011;49410;55.708;37.522;2022-09-23T12:32:23;9.05;;;2.83;;
63286;SDS011;49410;55.708;37.522;2022-09-23T12:34:50;6.55;;;2.42;;
63286;SDS011;49410;55.708;37.522;2022-09-23T12:37:24;5.93;;;2.78;;
63286;SDS011;49410;55.708;37.522;2022-09-23T12:39:52;8.40;;;2.83;;
63286;SDS011;49410;55.708;37.522;2022-09-23T12:42:19;7.20;;;2.88;;
63286;SDS011;49410;55.708;37.522;2022-09-23T12:44:47;8.82;;;3.50;;
63286;SDS011;49410;55.708;37.522;2022-09-23T12:49:55;7.57;;;2.67;;
63286;SDS011;49410;55.708;37.522;2022-09-23T12:52:23;8.45;;;2.97;;
63286;SDS011;49410;55.708;37.522;2022-09-23T12:54:49;8.93;;;3.05;;
63286;SDS011;49410;55.708;37.522;2022-09-23T13:02:34;5.93;;;2.70;;
63286;SDS011;49410;55.708;37.522;2022-09-23T13:05:12;7.13;;;3.10;;
63286;SDS011;49410;55.708;37.522;2022-09-23T13:08:06;7.80;;;3.22;;
63286;SDS011;49410;55.708;37.522;2022-09-23T13:10:40;9.43;;;3.15;;
63286;SDS011;49410;55.708;37.522;2022-09-23T13:13:30;7.20;;;3.08;;
63286;SDS011;49410;55.708;37.522;2022-09-23T13:26:54;7.72;;;3.05;;
63286;SDS011;49410;55.708;37.522;2022-09-23T13:32:28;8.32;;;3.42;;
63286;SDS011;49410;55.708;37.522;2022-09-23T13:35:04;11.13;;;3.78;;
63286;SDS011;49410;55.708;37.522;2022-09-23T13:37:41;8.93;;;3.88;;
63286;SDS011;49410;55.708;37.522;2022-09-23T13:43:31;8.55;;;3.70;;
63286;SDS011;49410;55.708;37.522;2022-09-23T13:46:40;9.90;;;4.18;;
63286;SDS011;49410;55.708;37.522;2022-09-23T13:52:02;9.68;;;3.83;;
63286;SDS011;49410;55.708;37.522;2022-09-23T13:57:23;9.27;;;3.85;;
63286;SDS011;49410;55.708;37.522;2022-09-23T13:59:50;13.25;;;4.28;;
63286;SDS011;49410;55.708;37.522;2022-09-23T14:02:16;9.40;;;4.07;;
63286;SDS011;49410;55.708;37.522;2022-09-23T14:04:42;9.02;;;4.20;;
63286;SDS011;49410;55.708;37.522;2022-09-23T14:07:09;9.52;;;3.63;;
63286;SDS011;49410;55.708;37.522;2022-09-23T14:09:40;8.25;;;3.72;;
63286;SDS011;49410;55.708;37.522;2022-09-23T14:12:08;9.90;;;4.05;;
63286;SDS011;49410;55.708;37.522;2022-09-23T14:14:35;9.43;;;4.50;;
63286;SDS011;49410;55.708;37.522;2022-09-23T14:17:04;8.73;;;3.88;;
63286;SDS011;49410;55.708;37.522;2022-09-23T14:19:31;7.60;;;3.42;;
63286;SDS011;49410;55.708;37.522;2022-09-23T14:21:58;9.57;;;3.65;;
63286;SDS011;49410;55.708;37.522;2022-09-23T14:27:44;7.85;;;3.40;;
63286;SDS011;49410;55.708;37.522;2022-09-23T14:29:50;17.38;;;3.95;;
63286;SDS011;49410;55.708;37.522;2022-09-23T14:42:56;8.48;;;3.25;;
63286;SDS011;49410;55.708;37.522;2022-09-23T14:45:24;8.48;;;3.53;;
63286;SDS011;49410;55.708;37.522;2022-09-23T14:47:52;7.85;;;3.22;;
63286;SDS011;49410;55.708;37.522;2022-09-23T14:50:23;8.88;;;3.53;;
63286;SDS011;49410;55.708;37.522;2022-09-23T14:55:52;9.60;;;3.58;;
63286;SDS011;49410;55.708;37.522;2022-09-23T14:58:22;7.80;;;3.30;;
63286;SDS011;49410;55.708;37.522;2022-09-23T15:00:59;8.05;;;2.95;;
63286;SDS011;49410;55.708;37.522;2022-09-23T15:03:25;9.60;;;3.33;;
63286;SDS011;49410;55.708;37.522;2022-09-23T15:05:59;8.32;;;3.05;;
63286;SDS011;49410;55.708;37.522;2022-09-23T15:08:29;8.75;;;3.15;;
63286;SDS011;49410;55.708;37.522;2022-09-23T15:10:59;9.70;;;3.33;;
63286;SDS011;49410;55.708;37.522;2022-09-23T15:13:27;8.15;;;3.13;;
63286;SDS011;49410;55.708;37.522;2022-09-23T15:15:56;7.95;;;3.13;;
63286;SDS011;49410;55.708;37.522;2022-09-23T15:18:24;9.20;;;3.83;;
63286;SDS011;49410;55.708;37.522;2022-09-23T15:20:56;10.27;;;3.17;;
63286;SDS011;49410;55.708;37.522;2022-09-23T15:23:34;8.02;;;3.53;;
63286;SDS011;49410;55.708;37.522;2022-09-23T15:29:10;8.45;;;3.50;;
63286;SDS011;49410;55.708;37.522;2022-09-23T15:31:35;8.20;;;3.50;;
63286;SDS011;49410;55.708;37.522;2022-09-23T15:34:01;9.73;;;3.65;;
63286;SDS011;49410;55.708;37.522;2022-09-23T15:36:29;8.93;;;3.78;;
63286;SDS011;49410;55.708;37.522;2022-09-23T15:38:59;8.77;;;3.53;;
63286;SDS011;49410;55.708;37.522;2022-09-23T15:41:26;9.68;;;3.45;;
63286;SDS011;49410;55.708;37.522;2022-09-23T15:43:52;10.85;;;3.70;;
63286;SDS011;49410;55.708;37.522;2022-09-23T15:46:24;7.90;;;3.70;;
63286;SDS011;49410;55.708;37.522;2022-09-23T15:49:02;8.15;;;4.15;;
63286;SDS011;49410;55.708;37.522;2022-09-23T15:51:32;10.88;;;3.63;;
63286;SDS011;49410;55.708;37.522;2022-09-23T15:54:02;9.13;;;3.30;;
63286;SDS011;49410;55.708;37.522;2022-09-23T15:56:30;8.52;;;3.33;;
63286;SDS011;49410;55.708;37.522;2022-09-23T15:58:55;7.25;;;3.30;;
63286;SDS011;49410;55.708;37.522;2022-09-23T16:01:31;7.22;;;2.92;;
63286;SDS011;49410;55.708;37.522;2022-09-23T16:04:00;10.38;;;4.40;;
63286;SDS011;49410;55.708;37.522;2022-09-23T16:06:28;7.22;;;3.42;;
63286;SDS011;49410;55.708;37.522;2022-09-23T16:08:53;12.10;;;3.92;;
63286;SDS011;49410;55.708;37.522;2022-09-23T16:11:21;7.53;;;3.38;;
63286;SDS011;49410;55.708;37.522;2022-09-23T16:13:49;8.05;;;3.35;;
63286;SDS011;49410;55.708;37.522;2022-09-23T16:16:15;8.07;;;3.50;;
63286;SDS011;49410;55.708;37.522;2022-09-23T16:18:41;12.68;;;3.28;;
63286;SDS011;49410;55.708;37.522;2022-09-23T16:21:11;10.20;;;3.90;;
63286;SDS011;49410;55.708;37.522;2022-09-23T16:23:40;10.18;;;3.72;;
63286;SDS011;49410;55.708;37.522;2022-09-23T16:26:17;8.20;;;3.50;;
63286;SDS011;49410;55.708;37.522;2022-09-23T16:31:12;8.63;;;3.75;;
63286;SDS011;49410;55.708;37.522;2022-09-23T16:33:41;12.07;;;4.00;;
63286;SDS011;49410;55.708;37.522;2022-09-23T16:36:18;9.77;;;3.88;;
63286;SDS011;49410;55.708;37.522;2022-09-23T16:38:49;9.30;;;3.75;;
63286;SDS011;49410;55.708;37.522;2022-09-23T16:41:15;9.43;;;3.60;;
63286;SDS011;49410;55.708;37.522;2022-09-23T16:43:41;8.93;;;3.95;;
63286;SDS011;49410;55.708;37.522;2022-09-23T16:46:09;10.32;;;3.72;;
63286;SDS011;49410;55.708;37.522;2022-09-23T16:48:36;9.05;;;3.67;;
63286;SDS011;49410;55.708;37.522;2022-09-23T16:51:05;8.82;;;3.17;;
63286;SDS011;49410;55.708;37.522;2022-09-23T16:53:31;8.98;;;3.47;;
63286;SDS011;49410;55.708;37.522;2022-09-23T16:56:02;6.70;;;2.78;;
63286;SDS011;49410;55.708;37.522;2022-09-23T16:58:38;7.82;;;2.80;;
63286;SDS011;49410;55.708;37.522;2022-09-23T17:01:05;8.02;;;2.83;;
63286;SDS011;49410;55.708;37.522;2022-09-23T17:03:50;7.78;;;2.63;;
63286;SDS011;49410;55.708;37.522;2022-09-23T17:06:15;6.45;;;2.70;;
63286;SDS011;49410;55.708;37.522;2022-09-23T17:08:44;8.80;;;3.03;;
63286;SDS011;49410;55.708;37.522;2022-09-23T17:11:15;8.90;;;2.80;;
63286;SDS011;49410;55.708;37.522;2022-09-23T17:13:41;7.88;;;3.20;;
63286;SDS011;49410;55.708;37.522;2022-09-23T17:16:08;7.53;;;2.78;;
63286;SDS011;49410;55.708;37.522;2022-09-23T17:18:35;7.53;;;3.00;;
63286;SDS011;49410;55.708;37.522;2022-09-23T17:21:04;7.72;;;3.70;;
63286;SDS011;49410;55.708;37.522;2022-09-23T17:23:31;7.63;;;3.20;;
63286;SDS011;49410;55.708;37.522;2022-09-23T17:25:59;7.53;;;3.10;;
63286;SDS011;49410;55.708;37.522;2022-09-23T17:28:25;8.70;;;3.08;;
63286;SDS011;49410;55.708;37.522;2022-09-23T17:30:54;8.15;;;3.15;;
63286;SDS011;49410;55.708;37.522;2022-09-23T17:33:24;9.80;;;3.33;;
63286;SDS011;49410;55.708;37.522;2022-09-23T17:35:50;10.32;;;3.72;;
63286;SDS011;49410;55.708;37.522;2022-09-23T17:38:16;8.18;;;3.20;;